Time;durP1;ratioP1;P1;durP2;ratioP2;P2;SDS_P1;SDS_P2;PMS_P1;PMS_P2;Temp;Humidity;BMP_temperature;BMP_pressure;BME280_temperature;BME280_humidity;BME280_pressure;Samples;Min_cycle;Max_cycle;Signal;HPM_P1;HPM_P2
2023/08/11 00:02:27;;;;;;;3.83;2.80;;;;;;;;;;10065840;28;20042;-71
2023/08/11 00:07:19;;;;;;;3.10;1.80;;;;;;;;;;10064264;28;20485;-72
2023/08/11 00:12:11;;;;;;;7.35;2.10;;;;;;;;;;10062794;28;20345;-71
2023/08/11 00:17:03;;;;;;;3.67;2.10;;;;;;;;;;10062871;28;20049;-71
2023/08/11 00:21:56;;;;;;;3.70;2.00;;;;;;;;;;10063247;28;20128;-71
2023/08/11 00:26:49;;;;;;;4.20;2.13;;;;;;;;;;10062572;28;20116;-71
2023/08/11 00:31:41;;;;;;;2.53;2.08;;;;;;;;;;10061462;28;20085;-71
2023/08/11 00:36:34;;;;;;;2.33;2.10;;;;;;;;;;10060709;28;20042;-71
2023/08/11 00:41:30;;;;;;;3.45;2.03;;;;;;;;;;10061539;28;20369;-71
2023/08/11 00:46:23;;;;;;;5.22;2.25;;;;;;;;;;10061546;28;20045;-72
2023/08/11 00:51:15;;;;;;;2.42;2.15;;;;;;;;;;10061875;28;20045;-71
2023/08/11 00:56:07;;;;;;;4.50;2.53;;;;;;;;;;10062205;28;20479;-72
2023/08/11 01:00:59;;;;;;;4.32;2.47;;;;;;;;;;10062986;28;20048;-71
2023/08/11 01:06:08;;;;;;;2.90;2.60;;;;;;;;;;10061925;28;20460;-72
2023/08/11 01:11:21;;;;;;;4.82;2.55;;;;;;;;;;10060090;28;20041;-72
2023/08/11 01:16:15;;;;;;;6.47;2.97;;;;;;;;;;10061129;28;20037;-71
2023/08/11 01:21:10;;;;;;;5.97;3.03;;;;;;;;;;10061266;28;20045;-72
2023/08/11 01:26:02;;;;;;;2.88;2.58;;;;;;;;;;10067134;28;20045;-72
2023/08/11 01:30:54;;;;;;;5.32;2.55;;;;;;;;;;10066368;28;20037;-72
2023/08/11 01:35:46;;;;;;;3.10;2.45;;;;;;;;;;10068334;28;20045;-71
2023/08/11 01:40:39;;;;;;;3.33;2.60;;;;;;;;;;10067731;28;20175;-70
2023/08/11 01:45:31;;;;;;;3.80;3.10;;;;;;;;;;10068158;28;20057;-72
2023/08/11 01:50:24;;;;;;;3.13;2.40;;;;;;;;;;10069614;28;20037;-71
2023/08/11 01:55:16;;;;;;;5.03;2.72;;;;;;;;;;10051676;28;20069;-72
2023/08/11 02:00:12;;;;;;;5.28;2.70;;;;;;;;;;10070416;28;20655;-72
2023/08/11 02:05:07;;;;;;;4.53;2.22;;;;;;;;;;10067007;28;20049;-72
2023/08/11 02:10:00;;;;;;;6.50;2.35;;;;;;;;;;10066538;28;20519;-72
2023/08/11 02:14:52;;;;;;;6.97;3.55;;;;;;;;;;10067928;28;20384;-72
2023/08/11 02:19:45;;;;;;;6.72;3.10;;;;;;;;;;10069799;28;20049;-72
2023/08/11 02:24:37;;;;;;;6.45;2.58;;;;;;;;;;10065775;28;20053;-70
2023/08/11 02:29:29;;;;;;;3.30;2.50;;;;;;;;;;10067028;28;20046;-72
2023/08/11 02:34:21;;;;;;;6.43;3.00;;;;;;;;;;10065484;28;20387;-72
2023/08/11 02:39:13;;;;;;;9.38;3.63;;;;;;;;;;10066734;28;20056;-72
2023/08/11 02:44:05;;;;;;;5.32;2.45;;;;;;;;;;10067312;28;20045;-72
2023/08/11 02:48:57;;;;;;;5.82;3.30;;;;;;;;;;10064667;28;20046;-71
2023/08/11 02:53:49;;;;;;;2.92;2.63;;;;;;;;;;10061350;28;20053;-72
2023/08/11 02:58:42;;;;;;;7.05;2.97;;;;;;;;;;10054774;28;20549;-72
2023/08/11 03:03:34;;;;;;;5.22;2.95;;;;;;;;;;10064783;28;20045;-72
2023/08/11 03:08:26;;;;;;;7.07;2.83;;;;;;;;;;10066507;28;20380;-72
2023/08/11 03:13:20;;;;;;;4.05;3.30;;;;;;;;;;10052724;28;20076;-72
2023/08/11 03:18:12;;;;;;;3.40;2.55;;;;;;;;;;10040986;28;20129;-71
2023/08/11 03:23:05;;;;;;;3.60;3.20;;;;;;;;;;10044619;28;20124;-70
2023/08/11 03:27:57;;;;;;;3.65;2.95;;;;;;;;;;10064071;28;20049;-69
2023/08/11 03:32:53;;;;;;;4.72;3.15;;;;;;;;;;10064129;28;20045;-72
2023/08/11 03:37:53;;;;;;;4.18;3.25;;;;;;;;;;10046998;28;20072;-72
2023/08/11 03:42:46;;;;;;;3.80;3.13;;;;;;;;;;10064034;28;20045;-72
2023/08/11 03:47:40;;;;;;;5.18;3.95;;;;;;;;;;10064062;28;20037;-72
2023/08/11 03:52:36;;;;;;;4.38;3.53;;;;;;;;;;10062013;28;20667;-71
2023/08/11 03:57:29;;;;;;;3.67;3.08;;;;;;;;;;10061318;28;20050;-73
2023/08/11 04:02:21;;;;;;;2.92;2.65;;;;;;;;;;10078060;28;20049;-72
2023/08/11 04:07:13;;;;;;;5.05;3.72;;;;;;;;;;10062307;28;20510;-72
2023/08/11 04:12:05;;;;;;;4.35;3.58;;;;;;;;;;10061029;28;20045;-71
2023/08/11 04:16:58;;;;;;;4.18;3.78;;;;;;;;;;10061453;28;20133;-71
2023/08/11 04:21:50;;;;;;;4.75;3.08;;;;;;;;;;10063781;28;20045;-68
2023/08/11 04:26:42;;;;;;;3.97;3.28;;;;;;;;;;10038522;28;20708;-72
2023/08/11 04:31:34;;;;;;;3.55;3.25;;;;;;;;;;10036378;28;20042;-72
2023/08/11 04:36:27;;;;;;;3.58;3.00;;;;;;;;;;10060586;28;20049;-72
2023/08/11 04:41:19;;;;;;;4.13;3.53;;;;;;;;;;10063197;28;20072;-71
2023/08/11 04:46:11;;;;;;;5.38;4.07;;;;;;;;;;10060700;28;20273;-72
2023/08/11 04:51:03;;;;;;;4.05;3.65;;;;;;;;;;10062064;28;20045;-73
2023/08/11 04:55:56;;;;;;;4.43;3.72;;;;;;;;;;10064968;28;20594;-72
2023/08/11 05:00:48;;;;;;;4.60;4.20;;;;;;;;;;10071494;28;20046;-73
2023/08/11 05:05:41;;;;;;;4.53;4.10;;;;;;;;;;10068800;28;20446;-71
2023/08/11 05:10:33;;;;;;;4.90;4.43;;;;;;;;;;10071470;28;20042;-73
2023/08/11 05:15:25;;;;;;;8.60;4.70;;;;;;;;;;10068941;28;20057;-70
2023/08/11 05:20:17;;;;;;;5.68;4.15;;;;;;;;;;10065555;28;20050;-71
2023/08/11 05:25:09;;;;;;;4.65;4.25;;;;;;;;;;10065792;28;20128;-71
2023/08/11 05:30:03;;;;;;;7.50;4.78;;;;;;;;;;10066039;28;20041;-69
2023/08/11 05:34:55;;;;;;;7.43;4.63;;;;;;;;;;10066191;28;20049;-71
2023/08/11 05:39:47;;;;;;;5.22;4.68;;;;;;;;;;10070702;28;20056;-70
2023/08/11 05:44:39;;;;;;;7.38;5.65;;;;;;;;;;10069460;28;20049;-70
2023/08/11 05:49:31;;;;;;;10.27;5.70;;;;;;;;;;10069294;28;20136;-70
2023/08/11 05:54:23;;;;;;;6.68;5.97;;;;;;;;;;10071208;28;20387;-70
2023/08/11 05:59:15;;;;;;;6.28;5.68;;;;;;;;;;10069376;28;20045;-71
2023/08/11 06:04:06;;;;;;;7.93;5.50;;;;;;;;;;10069501;28;20073;-71
2023/08/11 06:08:58;;;;;;;7.32;4.95;;;;;;;;;;10068018;28;20045;-71
2023/08/11 06:13:50;;;;;;;7.20;5.28;;;;;;;;;;10068834;28;20165;-71
2023/08/11 06:18:42;;;;;;;8.75;6.00;;;;;;;;;;10068896;28;20115;-71
2023/08/11 06:23:34;;;;;;;5.57;5.03;;;;;;;;;;10067734;28;20056;-70
2023/08/11 06:28:26;;;;;;;5.60;5.05;;;;;;;;;;10067096;28;20050;-70
2023/08/11 06:33:18;;;;;;;5.63;4.93;;;;;;;;;;10066978;28;20049;-69
2023/08/11 06:38:10;;;;;;;7.63;5.40;;;;;;;;;;10068022;28;20042;-71
2023/08/11 06:43:02;;;;;;;10.23;5.28;;;;;;;;;;10067666;28;20475;-70
2023/08/11 06:47:53;;;;;;;12.50;5.10;;;;;;;;;;10066866;28;20163;-71
2023/08/11 06:52:45;;;;;;;5.68;4.75;;;;;;;;;;10067121;28;20042;-70
2023/08/11 06:57:37;;;;;;;5.82;4.03;;;;;;;;;;10053272;28;20057;-69
2023/08/11 07:02:29;;;;;;;7.72;4.50;;;;;;;;;;10065217;28;20065;-71
2023/08/11 07:07:22;;;;;;;5.90;4.50;;;;;;;;;;10061297;28;20046;-70
2023/08/11 07:12:14;;;;;;;4.75;4.30;;;;;;;;;;10059545;28;20479;-70
2023/08/11 07:17:05;;;;;;;6.03;4.75;;;;;;;;;;10063867;28;20038;-70
2023/08/11 07:21:58;;;;;;;9.20;6.72;;;;;;;;;;10063356;28;20059;-71
2023/08/11 07:26:50;;;;;;;5.43;4.93;;;;;;;;;;10062353;28;20054;-70
2023/08/11 07:31:43;;;;;;;5.97;3.60;;;;;;;;;;10061311;28;20091;-68
2023/08/11 07:36:35;;;;;;;6.63;4.35;;;;;;;;;;10064056;28;20045;-70
2023/08/11 07:41:26;;;;;;;6.53;3.92;;;;;;;;;;10063221;28;20072;-72
2023/08/11 07:46:18;;;;;;;8.23;4.60;;;;;;;;;;10063682;28;20447;-68
2023/08/11 07:51:10;;;;;;;7.47;4.05;;;;;;;;;;10058613;28;20046;-70
2023/08/11 07:56:04;;;;;;;10.13;5.28;;;;;;;;;;10063530;28;20378;-70
2023/08/11 08:00:56;;;;;;;12.45;3.60;;;;;;;;;;10060623;28;20049;-70
2023/08/11 08:05:48;;;;;;;7.18;4.13;;;;;;;;;;10063515;28;20121;-67
2023/08/11 08:10:40;;;;;;;5.05;3.70;;;;;;;;;;10062335;28;20073;-69
2023/08/11 08:15:32;;;;;;;7.47;3.70;;;;;;;;;;10063297;28;20450;-71
2023/08/11 08:20:27;;;;;;;10.13;4.35;;;;;;;;;;10061715;28;20049;-70
2023/08/11 08:25:19;;;;;;;19.35;6.47;;;;;;;;;;10062565;28;20103;-69
2023/08/11 08:30:11;;;;;;;4.40;3.17;;;;;;;;;;10061290;28;20045;-71
2023/08/11 08:35:04;;;;;;;6.38;3.20;;;;;;;;;;10060112;28;20091;-70
2023/08/11 08:39:57;;;;;;;5.55;2.88;;;;;;;;;;10059858;28;20045;-70
2023/08/11 08:44:52;;;;;;;4.68;3.00;;;;;;;;;;10061424;28;20069;-68
2023/08/11 08:49:44;;;;;;;4.55;3.53;;;;;;;;;;10061596;28;20045;-70
2023/08/11 08:54:36;;;;;;;6.28;3.30;;;;;;;;;;10062242;28;20088;-68
2023/08/11 08:59:29;;;;;;;5.70;3.13;;;;;;;;;;10073775;28;20494;-70
2023/08/11 09:04:21;;;;;;;3.72;2.63;;;;;;;;;;10060951;28;20107;-69
2023/08/11 09:09:15;;;;;;;5.55;2.50;;;;;;;;;;10060916;28;20061;-70
2023/08/11 09:14:08;;;;;;;2.70;2.50;;;;;;;;;;10060769;28;20356;-71
2023/08/11 09:19:00;;;;;;;2.05;1.88;;;;;;;;;;10060883;28;20103;-71
2023/08/11 09:23:54;;;;;;;4.30;3.15;;;;;;;;;;10076404;28;20111;-70
2023/08/11 09:28:46;;;;;;;2.63;2.10;;;;;;;;;;10060064;28;20153;-70
2023/08/11 09:33:38;;;;;;;6.30;2.58;;;;;;;;;;10061287;28;20111;-69
2023/08/11 09:38:30;;;;;;;5.78;2.50;;;;;;;;;;10060905;28;20072;-70
2023/08/11 09:43:22;;;;;;;3.33;2.40;;;;;;;;;;10063592;28;20042;-70
2023/08/11 09:48:13;;;;;;;3.13;2.70;;;;;;;;;;10069777;28;20068;-70
2023/08/11 09:53:07;;;;;;;4.38;3.08;;;;;;;;;;10068783;28;20096;-70
2023/08/11 09:57:59;;;;;;;6.80;2.58;;;;;;;;;;10064997;28;20491;-71
2023/08/11 10:03:00;;;;;;;3.25;2.92;;;;;;;;;;10065927;28;20048;-70
2023/08/11 10:07:54;;;;;;;5.32;2.80;;;;;;;;;;10061627;28;20057;-70
2023/08/11 10:12:57;;;;;;;6.50;2.97;;;;;;;;;;10082184;28;20140;-70
2023/08/11 10:17:49;;;;;;;7.80;3.20;;;;;;;;;;10063572;28;20041;-70
2023/08/11 10:22:41;;;;;;;4.70;2.70;;;;;;;;;;10068288;28;20121;-70
2023/08/11 10:27:34;;;;;;;7.68;2.88;;;;;;;;;;10062975;28;20049;-70
2023/08/11 10:32:32;;;;;;;2.83;2.35;;;;;;;;;;10065029;28;20045;-71
2023/08/11 10:37:35;;;;;;;6.57;2.58;;;;;;;;;;10065398;28;20077;-71
2023/08/11 10:42:27;;;;;;;3.47;2.25;;;;;;;;;;10065718;28;20042;-70
2023/08/11 10:47:20;;;;;;;3.80;2.47;;;;;;;;;;10064940;28;20069;-70
2023/08/11 10:52:12;;;;;;;2.50;2.30;;;;;;;;;;10065496;28;20104;-71
2023/08/11 10:57:04;;;;;;;2.50;2.30;;;;;;;;;;10064395;28;20068;-70
2023/08/11 11:01:58;;;;;;;3.45;2.00;;;;;;;;;;10063454;28;20085;-71
2023/08/11 11:06:53;;;;;;;3.28;2.38;;;;;;;;;;10064116;28;20392;-70
2023/08/11 11:11:45;;;;;;;2.58;2.08;;;;;;;;;;10064749;28;20048;-70
2023/08/11 11:16:38;;;;;;;4.97;2.00;;;;;;;;;;10063573;28;20373;-69
2023/08/11 11:21:30;;;;;;;2.20;2.00;;;;;;;;;;10063400;28;20043;-70
2023/08/11 11:26:22;;;;;;;3.45;2.65;;;;;;;;;;10063950;28;20049;-70
2023/08/11 11:31:15;;;;;;;3.25;2.30;;;;;;;;;;10064184;28;20043;-71
2023/08/11 11:36:08;;;;;;;8.75;2.63;;;;;;;;;;10062285;28;20088;-71
2023/08/11 11:41:00;;;;;;;4.40;2.63;;;;;;;;;;10063585;28;20737;-71
2023/08/11 11:45:53;;;;;;;3.20;2.05;;;;;;;;;;10065345;28;20383;-73
2023/08/11 11:50:45;;;;;;;2.92;2.40;;;;;;;;;;10063437;28;20049;-73
2023/08/11 11:55:44;;;;;;;2.40;2.10;;;;;;;;;;10063893;28;20054;-72
2023/08/11 12:00:36;;;;;;;2.25;2.00;;;;;;;;;;10063469;28;20061;-71
2023/08/11 12:05:28;;;;;;;2.75;2.25;;;;;;;;;;10062946;28;20530;-73
2023/08/11 12:10:30;;;;;;;3.97;2.45;;;;;;;;;;10055139;28;20045;-73
2023/08/11 12:15:22;;;;;;;14.10;2.90;;;;;;;;;;10077133;28;20079;-71
2023/08/11 12:20:14;;;;;;;5.85;2.10;;;;;;;;;;10062804;28;20050;-74
2023/08/11 12:25:07;;;;;;;4.03;2.40;;;;;;;;;;10061808;28;20129;-72
2023/08/11 12:30:02;;;;;;;4.25;2.22;;;;;;;;;;10061995;28;20071;-72
2023/08/11 12:34:54;;;;;;;3.33;2.20;;;;;;;;;;10061610;28;20045;-73
2023/08/11 12:39:46;;;;;;;5.93;2.00;;;;;;;;;;10061587;28;20041;-73
2023/08/11 12:44:39;;;;;;;2.72;1.95;;;;;;;;;;10062131;28;20053;-72
2023/08/11 12:49:31;;;;;;;4.63;2.97;;;;;;;;;;10059294;28;20042;-73
2023/08/11 12:54:23;;;;;;;4.88;2.40;;;;;;;;;;10061606;28;20053;-72
2023/08/11 12:59:14;;;;;;;2.75;2.40;;;;;;;;;;10062036;28;20132;-71
2023/08/11 13:04:07;;;;;;;2.95;2.13;;;;;;;;;;10059448;28;20114;-72
2023/08/11 13:08:59;;;;;;;3.10;1.88;;;;;;;;;;10057595;28;20046;-73
2023/08/11 13:13:50;;;;;;;2.20;1.63;;;;;;;;;;10057928;28;20042;-72
2023/08/11 13:18:42;;;;;;;2.45;1.77;;;;;;;;;;10059530;28;20048;-73
2023/08/11 13:23:34;;;;;;;2.83;1.83;;;;;;;;;;10071162;28;20054;-74
2023/08/11 13:28:26;;;;;;;5.47;2.22;;;;;;;;;;10063713;28;20029;-73
2023/08/11 13:33:19;;;;;;;2.33;1.83;;;;;;;;;;10061162;28;20041;-73
2023/08/11 13:38:12;;;;;;;4.63;2.20;;;;;;;;;;10065801;28;20033;-74
2023/08/11 13:43:05;;;;;;;3.25;2.00;;;;;;;;;;10067576;28;20041;-72
2023/08/11 13:47:56;;;;;;;4.68;1.88;;;;;;;;;;10066242;28;20130;-73
2023/08/11 13:52:48;;;;;;;3.40;1.88;;;;;;;;;;10066725;28;20042;-72
2023/08/11 13:57:40;;;;;;;2.45;2.25;;;;;;;;;;10067127;28;20049;-71
2023/08/11 14:02:32;;;;;;;2.53;2.08;;;;;;;;;;10060221;28;20053;-73
2023/08/11 14:07:24;;;;;;;2.10;1.90;;;;;;;;;;10063482;28;20099;-73
2023/08/11 14:12:24;;;;;;;7.47;2.00;;;;;;;;;;10079099;28;20525;-73
2023/08/11 14:17:16;;;;;;;2.83;1.77;;;;;;;;;;10064796;28;20064;-72
2023/08/11 14:22:08;;;;;;;3.05;1.65;;;;;;;;;;10064797;28;20037;-72
2023/08/11 14:27:00;;;;;;;8.27;2.15;;;;;;;;;;10065198;28;20100;-72
2023/08/11 14:31:52;;;;;;;4.22;2.05;;;;;;;;;;10066882;28;20097;-73
2023/08/11 14:36:44;;;;;;;3.22;1.70;;;;;;;;;;10065816;28;20049;-72
2023/08/11 14:41:35;;;;;;;4.50;1.45;;;;;;;;;;10065865;28;20073;-73
2023/08/11 14:46:27;;;;;;;4.78;2.55;;;;;;;;;;10066478;28;20049;-72
2023/08/11 14:51:19;;;;;;;3.15;1.92;;;;;;;;;;10065692;28;20041;-72
2023/08/11 14:56:11;;;;;;;3.38;1.77;;;;;;;;;;10065183;28;20125;-71
2023/08/11 15:01:03;;;;;;;2.60;1.70;;;;;;;;;;10023991;28;20511;-72
2023/08/11 15:05:55;;;;;;;2.75;1.73;;;;;;;;;;10025351;28;20045;-73
2023/08/11 15:10:47;;;;;;;4.57;1.88;;;;;;;;;;10023413;28;20487;-69
2023/08/11 15:15:38;;;;;;;6.13;2.17;;;;;;;;;;10020267;28;20396;-72
2023/08/11 15:20:30;;;;;;;3.53;1.35;;;;;;;;;;10024444;28;20116;-72
2023/08/11 15:25:22;;;;;;;3.67;1.83;;;;;;;;;;10024799;28;20500;-73
2023/08/11 15:30:14;;;;;;;2.33;1.35;;;;;;;;;;10025015;28;20046;-72
2023/08/11 15:35:07;;;;;;;3.20;1.38;;;;;;;;;;10022356;28;20448;-72
2023/08/11 15:40:00;;;;;;;5.80;1.42;;;;;;;;;;10015312;28;20069;-71
2023/08/11 15:44:52;;;;;;;6.10;1.60;;;;;;;;;;10024756;28;20042;-70
2023/08/11 15:49:44;;;;;;;2.85;1.73;;;;;;;;;;10050258;28;20042;-70
2023/08/11 15:54:36;;;;;;;3.40;1.92;;;;;;;;;;10027315;28;20193;-70
2023/08/11 15:59:27;;;;;;;2.38;1.83;;;;;;;;;;10051861;28;20471;-71
2023/08/11 16:04:19;;;;;;;3.05;1.55;;;;;;;;;;10077076;28;20068;-69
2023/08/11 16:09:11;;;;;;;6.40;1.83;;;;;;;;;;10052592;28;20048;-69
2023/08/11 16:14:03;;;;;;;3.70;1.67;;;;;;;;;;10060807;28;20073;-70
2023/08/11 16:18:55;;;;;;;2.28;1.45;;;;;;;;;;10060626;28;20046;-71
2023/08/11 16:23:47;;;;;;;4.22;1.67;;;;;;;;;;10065348;28;20045;-71
2023/08/11 16:28:41;;;;;;;3.85;1.95;;;;;;;;;;10060738;28;20045;-71
2023/08/11 16:33:33;;;;;;;6.18;1.55;;;;;;;;;;10054641;28;20065;-72
2023/08/11 16:38:25;;;;;;;3.40;1.80;;;;;;;;;;10056988;28;20060;-72
2023/08/11 16:43:17;;;;;;;3.42;1.52;;;;;;;;;;10058041;28;20154;-72
2023/08/11 16:48:09;;;;;;;1.40;1.30;;;;;;;;;;10078612;28;20490;-71
2023/08/11 16:53:01;;;;;;;9.77;1.60;;;;;;;;;;10062363;28;20045;-70
2023/08/11 16:57:53;;;;;;;5.00;2.17;;;;;;;;;;10068280;28;20072;-70
2023/08/11 17:02:45;;;;;;;2.97;1.50;;;;;;;;;;10062434;28;20046;-71
2023/08/11 17:07:37;;;;;;;6.95;1.80;;;;;;;;;;10069293;28;20042;-70
2023/08/11 17:12:28;;;;;;;6.07;2.53;;;;;;;;;;10065496;28;20049;-73
2023/08/11 17:17:20;;;;;;;3.47;1.75;;;;;;;;;;10069115;28;20697;-73
2023/08/11 17:22:12;;;;;;;2.60;2.13;;;;;;;;;;10051669;28;20132;-71
2023/08/11 17:27:05;;;;;;;8.48;2.47;;;;;;;;;;10045671;28;20049;-72
2023/08/11 17:31:57;;;;;;;7.38;2.00;;;;;;;;;;10068773;28;20050;-71
2023/08/11 17:36:49;;;;;;;4.10;2.00;;;;;;;;;;10045265;28;20053;-71
2023/08/11 17:41:41;;;;;;;4.20;2.60;;;;;;;;;;10028010;28;20472;-70
2023/08/11 17:46:33;;;;;;;2.72;2.10;;;;;;;;;;10047636;28;20048;-71
2023/08/11 17:51:25;;;;;;;2.30;2.10;;;;;;;;;;10065503;28;20103;-71
2023/08/11 17:56:17;;;;;;;3.15;2.08;;;;;;;;;;10066914;28;20606;-71
2023/08/11 18:01:09;;;;;;;5.60;2.20;;;;;;;;;;10066118;28;20502;-70
2023/08/11 18:06:01;;;;;;;4.78;2.58;;;;;;;;;;10066148;28;20383;-70
2023/08/11 18:10:53;;;;;;;2.65;2.22;;;;;;;;;;10058893;28;20443;-70
2023/08/11 18:15:45;;;;;;;4.13;2.95;;;;;;;;;;10033116;28;20081;-70
2023/08/11 18:20:37;;;;;;;4.20;3.70;;;;;;;;;;10053546;28;20223;-70
2023/08/11 18:25:29;;;;;;;4.05;3.50;;;;;;;;;;10063542;28;20033;-70
2023/08/11 18:30:21;;;;;;;3.75;3.35;;;;;;;;;;10067015;28;20445;-71
2023/08/11 18:35:19;;;;;;;8.80;2.95;;;;;;;;;;10060166;28;20050;-70
2023/08/11 18:40:11;;;;;;;3.75;3.00;;;;;;;;;;10060380;28;20128;-71
2023/08/11 18:45:03;;;;;;;2.78;2.55;;;;;;;;;;10052599;28;20057;-69
2023/08/11 18:49:55;;;;;;;3.13;2.75;;;;;;;;;;10027267;28;20496;-71
2023/08/11 18:54:47;;;;;;;4.13;2.70;;;;;;;;;;10065586;28;20526;-69
2023/08/11 18:59:39;;;;;;;16.73;4.18;;;;;;;;;;10051994;28;20060;-70
2023/08/11 19:04:32;;;;;;;5.18;2.85;;;;;;;;;;10052998;28;20049;-71
2023/08/11 19:09:24;;;;;;;8.07;2.72;;;;;;;;;;10063506;28;20049;-69
2023/08/11 19:14:15;;;;;;;5.72;2.72;;;;;;;;;;10063018;28;20049;-70
2023/08/11 19:19:11;;;;;;;4.28;2.92;;;;;;;;;;10078847;28;20136;-70
2023/08/11 19:24:03;;;;;;;5.00;2.58;;;;;;;;;;10060037;28;20037;-69
2023/08/11 19:28:55;;;;;;;4.82;2.70;;;;;;;;;;10057036;28;20128;-70
2023/08/11 19:33:47;;;;;;;4.57;3.22;;;;;;;;;;10057235;28;20096;-71
2023/08/11 19:38:41;;;;;;;3.45;2.58;;;;;;;;;;10056852;28;20046;-71
2023/08/11 19:43:33;;;;;;;6.25;3.28;;;;;;;;;;10059416;28;20049;-70
2023/08/11 19:48:25;;;;;;;6.88;2.88;;;;;;;;;;10062716;28;20132;-69
2023/08/11 19:53:17;;;;;;;2.95;2.50;;;;;;;;;;10060289;28;20038;-69
2023/08/11 19:58:12;;;;;;;4.68;2.72;;;;;;;;;;10061955;28;20111;-70
2023/08/11 20:03:04;;;;;;;4.18;2.30;;;;;;;;;;10060549;28;20046;-70
2023/08/11 20:07:59;;;;;;;3.08;2.63;;;;;;;;;;10054653;28;20045;-71
2023/08/11 20:12:50;;;;;;;3.38;2.60;;;;;;;;;;10056848;28;20124;-71
2023/08/11 20:17:43;;;;;;;7.07;4.05;;;;;;;;;;10050123;28;20544;-70
2023/08/11 20:22:35;;;;;;;7.18;3.05;;;;;;;;;;10058069;28;20380;-70
2023/08/11 20:27:27;;;;;;;4.07;2.90;;;;;;;;;;10059272;28;20042;-71
2023/08/11 20:32:19;;;;;;;6.80;3.25;;;;;;;;;;10071874;28;20065;-71
2023/08/11 20:37:11;;;;;;;7.07;4.00;;;;;;;;;;10046473;28;20046;-69
2023/08/11 20:42:03;;;;;;;4.47;2.83;;;;;;;;;;10056121;28;20037;-70
2023/08/11 20:46:55;;;;;;;5.93;2.78;;;;;;;;;;10060651;28;20543;-70
2023/08/11 20:51:47;;;;;;;5.32;2.58;;;;;;;;;;10060694;28;20431;-70
2023/08/11 20:56:39;;;;;;;6.03;2.78;;;;;;;;;;10061302;28;20141;-70
2023/08/11 21:01:30;;;;;;;3.25;2.78;;;;;;;;;;10060563;28;20041;-69
2023/08/11 21:06:22;;;;;;;5.15;2.65;;;;;;;;;;10061582;28;20898;-71
2023/08/11 21:11:14;;;;;;;5.95;2.55;;;;;;;;;;10061376;28;20045;-70
2023/08/11 21:16:06;;;;;;;3.53;2.67;;;;;;;;;;10076013;28;20053;-70
2023/08/11 21:20:58;;;;;;;2.67;2.47;;;;;;;;;;10060137;28;20037;-71
2023/08/11 21:25:50;;;;;;;3.08;2.72;;;;;;;;;;10060459;28;20041;-71
2023/08/11 21:30:42;;;;;;;4.07;2.80;;;;;;;;;;10057945;28;20099;-71
2023/08/11 21:35:36;;;;;;;4.13;2.58;;;;;;;;;;10060282;28;20059;-70
2023/08/11 21:40:28;;;;;;;5.00;3.20;;;;;;;;;;10065559;28;20033;-70
2023/08/11 21:45:20;;;;;;;3.95;3.38;;;;;;;;;;10067812;28;20353;-71
2023/08/11 21:50:12;;;;;;;3.25;2.85;;;;;;;;;;10067417;28;20053;-69
2023/08/11 21:55:04;;;;;;;2.90;2.60;;;;;;;;;;10067558;28;20099;-70
2023/08/11 21:59:56;;;;;;;5.22;3.65;;;;;;;;;;10081802;28;20049;-70
2023/08/11 22:04:48;;;;;;;3.58;3.28;;;;;;;;;;10082923;28;20065;-70
2023/08/11 22:09:41;;;;;;;4.22;3.20;;;;;;;;;;10066811;28;20459;-70
2023/08/11 22:14:33;;;;;;;4.93;3.10;;;;;;;;;;10066940;28;20125;-70
2023/08/11 22:19:25;;;;;;;3.63;3.33;;;;;;;;;;10066932;28;20092;-71
2023/08/11 22:24:17;;;;;;;5.03;3.67;;;;;;;;;;10069729;28;20494;-70
2023/08/11 22:29:25;;;;;;;3.60;3.20;;;;;;;;;;10068145;28;20439;-71
2023/08/11 22:34:17;;;;;;;3.22;2.92;;;;;;;;;;10069851;28;20468;-70
2023/08/11 22:39:08;;;;;;;3.40;3.10;;;;;;;;;;10068547;28;20049;-69
2023/08/11 22:44:00;;;;;;;3.75;3.17;;;;;;;;;;10068190;28;20125;-71
2023/08/11 22:48:52;;;;;;;3.97;3.55;;;;;;;;;;10066960;28;20116;-70
2023/08/11 22:53:44;;;;;;;3.78;3.40;;;;;;;;;;10065667;28;20042;-69
2023/08/11 22:58:36;;;;;;;4.22;3.55;;;;;;;;;;10067562;28;20041;-69
2023/08/11 23:03:28;;;;;;;3.97;3.35;;;;;;;;;;10064239;28;20037;-70
2023/08/11 23:08:19;;;;;;;4.03;3.72;;;;;;;;;;10064026;28;20045;-71
2023/08/11 23:13:11;;;;;;;3.80;3.40;;;;;;;;;;10063345;28;20045;-71
2023/08/11 23:18:04;;;;;;;4.88;3.63;;;;;;;;;;10062787;28;20061;-70
2023/08/11 23:22:55;;;;;;;4.32;4.03;;;;;;;;;;10077638;28;20068;-71
2023/08/11 23:27:47;;;;;;;4.47;3.97;;;;;;;;;;10067594;28;20490;-71
2023/08/11 23:32:39;;;;;;;4.25;3.85;;;;;;;;;;10067120;28;20069;-70
2023/08/11 23:37:31;;;;;;;4.28;3.92;;;;;;;;;;10073486;28;20045;-72
2023/08/11 23:42:24;;;;;;;7.18;3.92;;;;;;;;;;10064822;28;20140;-70
2023/08/11 23:47:16;;;;;;;4.18;3.72;;;;;;;;;;10058935;28;20084;-70
2023/08/11 23:52:08;;;;;;;4.75;4.13;;;;;;;;;;10046477;28;20080;-71
2023/08/11 23:57:00;;;;;;;4.03;3.55;;;;;;;;;;10051051;28;20460;-70
